createdAt,value
2023-05-06T00:01:46.541Z,9.57
2023-05-06T00:04:49.954Z,9.50
2023-05-06T00:07:53.441Z,10.70
2023-05-06T00:10:56.685Z,10.00
2023-05-06T00:14:00.541Z,12.13
2023-05-06T00:17:03.681Z,10.18
2023-05-06T00:20:09.563Z,9.88
2023-05-06T00:23:12.749Z,9.85
2023-05-06T00:26:16.210Z,9.30
2023-05-06T00:29:19.451Z,9.52
2023-05-06T00:32:23.904Z,11.00
2023-05-06T00:35:27.802Z,11.50
2023-05-06T00:38:31.427Z,11.40
2023-05-06T00:41:34.732Z,9.90
2023-05-06T00:44:37.948Z,9.07
2023-05-06T00:47:41.706Z,9.13
2023-05-06T00:50:45.795Z,9.32
2023-05-06T00:53:49.794Z,9.93
2023-05-06T00:56:53.914Z,9.13
2023-05-06T00:59:57.441Z,9.35
2023-05-06T01:03:00.781Z,9.90
2023-05-06T01:06:19.464Z,9.30
2023-05-06T01:09:35.272Z,9.25
2023-05-06T01:12:50.122Z,9.10
2023-05-06T01:15:59.330Z,9.10
2023-05-06T01:19:06.256Z,10.00
2023-05-06T01:22:11.639Z,9.43
2023-05-06T01:25:22.001Z,9.10
2023-05-06T01:28:25.212Z,9.83
2023-05-06T01:31:33.515Z,9.55
2023-05-06T01:34:51.952Z,10.13
2023-05-06T01:38:34.043Z,10.15
2023-05-06T01:41:41.602Z,9.82
2023-05-06T01:44:48.818Z,9.77
2023-05-06T01:47:52.661Z,9.48
2023-05-06T01:50:56.439Z,9.90
2023-05-06T01:54:00.771Z,10.25
2023-05-06T01:57:04.050Z,9.13
2023-05-06T02:00:08.144Z,9.30
2023-05-06T02:03:15.568Z,9.80
2023-05-06T02:06:19.138Z,9.75
2023-05-06T02:09:22.464Z,9.70
2023-05-06T02:12:38.543Z,9.73
2023-05-06T02:15:41.808Z,9.57
2023-05-06T02:18:51.005Z,9.38
2023-05-06T02:21:54.324Z,10.52
2023-05-06T02:24:57.730Z,9.93
2023-05-06T02:28:00.927Z,10.25
2023-05-06T02:31:04.672Z,9.60
2023-05-06T02:34:10.262Z,10.07
2023-05-06T02:37:13.482Z,9.77
2023-05-06T02:40:16.817Z,10.57
2023-05-06T02:43:20.156Z,11.30
2023-05-06T02:46:23.428Z,10.67
2023-05-06T02:49:28.769Z,10.75
2023-05-06T02:52:33.414Z,10.77
2023-05-06T02:55:37.103Z,10.70
2023-05-06T02:58:41.028Z,11.18
2023-05-06T03:01:44.815Z,12.00
2023-05-06T03:04:48.019Z,11.23
2023-05-06T03:07:51.248Z,11.90
2023-05-06T03:10:54.760Z,11.70
2023-05-06T03:13:58.493Z,11.18
2023-05-06T03:17:01.740Z,11.53
2023-05-06T03:20:08.348Z,12.32
2023-05-06T03:23:13.686Z,12.52
2023-05-06T03:26:17.005Z,11.90
2023-05-06T03:29:21.681Z,12.40
2023-05-06T03:32:25.325Z,11.50
2023-05-06T03:35:29.476Z,12.05
2023-05-06T03:38:38.270Z,12.05
2023-05-06T03:41:44.600Z,12.18
2023-05-06T03:44:47.910Z,11.45
2023-05-06T03:47:52.050Z,17.83
2023-05-06T03:50:57.507Z,14.88
2023-05-06T03:54:01.284Z,15.27
2023-05-06T03:57:05.399Z,16.15
2023-05-06T04:00:12.084Z,16.70
2023-05-06T04:03:23.459Z,16.33
2023-05-06T04:06:28.311Z,17.02
2023-05-06T04:09:33.428Z,17.00
2023-05-06T04:12:39.990Z,18.42
2023-05-06T04:15:43.632Z,17.92
2023-05-06T04:18:51.759Z,16.87
2023-05-06T04:21:55.862Z,18.45
2023-05-06T04:25:02.243Z,18.38
2023-05-06T04:28:06.995Z,16.77
2023-05-06T04:31:11.148Z,16.90
2023-05-06T04:34:20.008Z,15.17
2023-05-06T04:37:24.078Z,15.32
2023-05-06T04:40:38.758Z,15.70
2023-05-06T04:43:42.508Z,15.68
2023-05-06T04:46:51.858Z,16.42
2023-05-06T04:49:55.552Z,14.43
2023-05-06T04:53:00.130Z,13.48
2023-05-06T04:56:04.098Z,14.23
2023-05-06T04:59:08.666Z,14.60
2023-05-06T05:02:12.109Z,15.63
2023-05-06T05:05:17.980Z,15.70
2023-05-06T05:08:24.234Z,14.95
2023-05-06T05:11:27.791Z,14.80
2023-05-06T05:14:38.357Z,14.63
2023-05-06T05:17:42.375Z,14.38
2023-05-06T05:20:46.017Z,14.00
2023-05-06T05:23:50.764Z,14.07
2023-05-06T05:26:54.115Z,13.90
2023-05-06T05:29:57.935Z,11.90
2023-05-06T05:33:01.592Z,12.50
2023-05-06T05:36:05.819Z,11.73
2023-05-06T05:39:09.325Z,11.25
2023-05-06T05:42:20.233Z,11.70
2023-05-06T05:45:24.427Z,10.40
2023-05-06T05:48:27.901Z,10.43
2023-05-06T05:51:31.214Z,11.03
2023-05-06T05:54:35.589Z,8.02
2023-05-06T05:57:39.258Z,10.20
2023-05-06T06:00:42.968Z,8.40
2023-05-06T06:03:50.266Z,9.68
2023-05-06T06:06:57.902Z,8.90
2023-05-06T06:10:01.509Z,7.57
2023-05-06T06:13:06.515Z,5.00
2023-05-06T06:16:10.608Z,5.53
2023-05-06T06:19:15.859Z,6.10
2023-05-06T06:22:19.821Z,6.77
2023-05-06T06:25:23.179Z,6.47
2023-05-06T06:28:26.798Z,6.13
2023-05-06T06:31:30.772Z,6.72
2023-05-06T06:34:37.693Z,8.43
2023-05-06T06:37:41.060Z,6.83
2023-05-06T06:40:44.491Z,5.38
2023-05-06T06:43:48.239Z,6.70
2023-05-06T06:46:55.636Z,7.35
2023-05-06T06:49:58.803Z,6.70
2023-05-06T06:53:03.122Z,8.00
2023-05-06T06:56:14.632Z,7.25
2023-05-06T06:59:17.795Z,7.65
2023-05-06T07:02:22.068Z,7.68
2023-05-06T07:05:27.194Z,6.95
2023-05-06T07:08:30.810Z,6.13
2023-05-06T07:11:34.351Z,5.50
2023-05-06T07:14:38.100Z,5.88
2023-05-06T07:17:41.463Z,5.47
2023-05-06T07:20:44.745Z,5.10
2023-05-06T07:23:47.939Z,5.37
2023-05-06T07:26:51.288Z,3.88
2023-05-06T07:29:54.523Z,4.93
2023-05-06T07:32:57.860Z,5.53
2023-05-06T07:36:01.379Z,5.38
2023-05-06T07:39:04.697Z,4.10
2023-05-06T07:42:08.222Z,4.45
2023-05-06T07:45:12.287Z,4.55
2023-05-06T07:48:16.937Z,4.60
2023-05-06T07:51:21.837Z,4.43
2023-05-06T07:54:25.309Z,3.40
2023-05-06T07:57:28.738Z,3.63
2023-05-06T08:00:31.998Z,3.13
2023-05-06T08:03:36.125Z,4.10
2023-05-06T08:06:39.614Z,4.07
2023-05-06T08:09:43.128Z,3.57
2023-05-06T08:12:46.533Z,3.15
2023-05-06T08:15:50.475Z,3.47
2023-05-06T08:18:53.741Z,4.15
2023-05-06T08:21:57.244Z,5.38
2023-05-06T08:25:01.540Z,4.03
2023-05-06T08:28:04.975Z,4.28
2023-05-06T08:31:08.454Z,4.10
2023-05-06T08:34:11.671Z,4.07
2023-05-06T08:37:14.971Z,3.83
2023-05-06T08:40:22.547Z,3.47
2023-05-06T08:43:27.718Z,4.18
2023-05-06T08:46:31.589Z,4.35
2023-05-06T08:49:34.935Z,3.97
2023-05-06T08:52:39.651Z,2.53
2023-05-06T08:55:43.891Z,4.30
2023-05-06T08:58:48.209Z,4.10
2023-05-06T09:01:53.284Z,2.85
2023-05-06T09:04:57.110Z,3.78
2023-05-06T09:08:00.456Z,3.88
2023-05-06T09:11:03.697Z,3.93
2023-05-06T09:14:14.076Z,3.90
2023-05-06T09:17:26.798Z,3.65
2023-05-06T09:20:33.152Z,3.55
2023-05-06T09:23:38.275Z,3.08
2023-05-06T09:26:43.215Z,3.27
2023-05-06T09:30:00.971Z,3.25
2023-05-06T09:33:04.987Z,3.00
2023-05-06T09:36:13.493Z,3.05
2023-05-06T09:39:16.803Z,3.15
2023-05-06T09:42:29.989Z,3.30
2023-05-06T09:45:33.748Z,3.20
2023-05-06T09:48:37.517Z,2.90
2023-05-06T09:51:47.755Z,3.10
2023-05-06T09:54:53.311Z,2.80
2023-05-06T09:57:58.191Z,2.90
2023-05-06T10:01:06.104Z,3.25
2023-05-06T10:04:12.875Z,2.70
2023-05-06T10:07:22.732Z,2.75
2023-05-06T10:10:28.520Z,2.65
2023-05-06T10:13:32.542Z,2.70
2023-05-06T10:16:37.774Z,2.42
2023-05-06T10:19:45.027Z,2.60
2023-05-06T10:23:17.344Z,2.42
2023-05-06T10:26:22.635Z,2.63
2023-05-06T10:29:26.816Z,2.50
2023-05-06T10:32:33.361Z,2.67
2023-05-06T10:35:43.087Z,2.63
2023-05-06T10:38:54.977Z,2.50
2023-05-06T10:41:58.314Z,2.40
2023-05-06T10:45:05.969Z,2.60
2023-05-06T10:48:15.665Z,2.63
2023-05-06T10:51:27.385Z,2.65
2023-05-06T10:54:30.715Z,1.95
2023-05-06T10:57:41.639Z,2.00
2023-05-06T11:00:58.038Z,2.30
2023-05-06T11:04:09.828Z,2.33
2023-05-06T11:07:15.504Z,2.25
2023-05-06T11:10:33.046Z,2.63
2023-05-06T11:13:36.539Z,2.40
2023-05-06T11:16:52.716Z,2.37
2023-05-06T11:20:18.094Z,2.38
2023-05-06T11:23:21.385Z,2.03
2023-05-06T11:26:25.535Z,2.08
2023-05-06T11:29:28.838Z,2.00
2023-05-06T11:32:34.869Z,2.40
2023-05-06T11:35:38.545Z,2.70
2023-05-06T11:38:56.476Z,2.22
2023-05-06T11:42:07.339Z,1.85
2023-05-06T11:45:12.588Z,1.92
2023-05-06T11:48:16.300Z,2.20
2023-05-06T11:51:25.971Z,2.00
2023-05-06T11:54:29.342Z,2.47
2023-05-06T11:57:34.412Z,2.30
2023-05-06T12:00:37.569Z,2.08
2023-05-06T12:03:41.252Z,2.50
2023-05-06T12:06:44.586Z,2.70
2023-05-06T12:09:49.868Z,2.40
2023-05-06T12:12:53.221Z,2.33
2023-05-06T12:16:00.226Z,2.60
2023-05-06T12:19:04.175Z,2.20
2023-05-06T12:22:22.574Z,2.30
2023-05-06T12:25:25.870Z,1.90
2023-05-06T12:28:30.603Z,2.20
2023-05-06T12:31:33.984Z,2.30
2023-05-06T12:34:41.138Z,2.27
2023-05-06T12:37:44.364Z,2.45
2023-05-06T12:40:55.147Z,2.53
2023-05-06T12:43:58.425Z,2.30
2023-05-06T12:47:09.724Z,2.40
2023-05-06T12:50:13.362Z,2.43
2023-05-06T12:53:32.410Z,2.30
2023-05-06T12:56:35.654Z,2.00
2023-05-06T12:59:39.061Z,2.20
2023-05-06T13:02:42.432Z,2.13
2023-05-06T13:05:50.279Z,2.10
2023-05-06T13:08:53.768Z,2.05
2023-05-06T13:11:57.106Z,2.33
2023-05-06T13:15:01.056Z,2.30
2023-05-06T13:18:04.758Z,2.60
2023-05-06T13:21:08.119Z,2.07
2023-05-06T13:24:11.384Z,2.15
2023-05-06T13:27:14.750Z,2.13
2023-05-06T13:30:17.989Z,2.00
2023-05-06T13:33:21.311Z,2.00
2023-05-06T13:36:25.663Z,1.83
2023-05-06T13:39:28.878Z,1.98
2023-05-06T13:42:32.092Z,1.90
2023-05-06T13:45:35.736Z,1.90
2023-05-06T13:48:38.817Z,2.22
2023-05-06T13:51:42.055Z,1.90
2023-05-06T13:54:46.274Z,2.45
2023-05-06T13:57:49.557Z,1.90
2023-05-06T14:00:52.664Z,1.90
2023-05-06T14:03:55.799Z,2.20
2023-05-06T14:06:59.304Z,1.87
2023-05-06T14:10:02.848Z,1.77
2023-05-06T14:13:09.940Z,2.10
2023-05-06T14:16:13.535Z,2.70
2023-05-06T14:19:25.804Z,2.00
2023-05-06T14:22:29.340Z,2.37
2023-05-06T14:25:33.046Z,2.08
2023-05-06T14:28:36.402Z,2.88
2023-05-06T14:31:39.720Z,2.42
2023-05-06T14:34:42.997Z,2.58
2023-05-06T14:37:46.438Z,2.10
2023-05-06T14:40:50.812Z,2.15
2023-05-06T14:43:53.973Z,2.17
2023-05-06T14:46:57.357Z,2.15
2023-05-06T14:50:00.944Z,2.30
2023-05-06T14:53:04.278Z,2.13
2023-05-06T14:56:11.544Z,2.60
2023-05-06T14:59:15.262Z,2.22
2023-05-06T15:02:18.735Z,2.33
2023-05-06T15:05:21.877Z,2.00
2023-05-06T15:08:25.052Z,2.67
2023-05-06T15:11:28.272Z,2.75
2023-05-06T15:14:31.429Z,2.85
2023-05-06T15:17:34.729Z,2.78
2023-05-06T15:20:38.082Z,2.88
2023-05-06T15:23:41.484Z,2.80
2023-05-06T15:26:44.715Z,2.20
2023-05-06T15:29:47.934Z,2.90
2023-05-06T15:32:51.201Z,2.63
2023-05-06T15:35:54.487Z,2.90
2023-05-06T15:39:00.928Z,2.10
2023-05-06T15:42:04.652Z,2.30
2023-05-06T15:45:08.402Z,2.08
2023-05-06T15:48:11.786Z,2.28
2023-05-06T15:51:15.252Z,2.00
2023-05-06T15:54:18.519Z,2.93
2023-05-06T15:57:21.749Z,2.40
2023-05-06T16:00:25.187Z,2.30
2023-05-06T16:03:28.800Z,2.00
2023-05-06T16:06:32.140Z,1.90
2023-05-06T16:09:35.351Z,1.90
2023-05-06T16:12:38.973Z,2.10
2023-05-06T16:15:42.273Z,1.98
2023-05-06T16:18:45.544Z,2.00
2023-05-06T16:21:49.039Z,2.40
2023-05-06T16:24:52.246Z,2.40
2023-05-06T16:27:56.043Z,2.58
2023-05-06T16:31:01.736Z,2.30
2023-05-06T16:34:05.038Z,2.35
2023-05-06T16:37:08.432Z,2.22
2023-05-06T16:40:17.931Z,2.60
2023-05-06T16:43:21.569Z,2.50
2023-05-06T16:46:26.433Z,2.55
2023-05-06T16:49:29.713Z,3.15
2023-05-06T16:52:33.465Z,3.20
2023-05-06T16:55:36.909Z,2.87
2023-05-06T16:58:43.646Z,2.63
2023-05-06T17:01:47.360Z,2.70
2023-05-06T17:04:50.645Z,2.63
2023-05-06T17:07:53.925Z,2.30
2023-05-06T17:10:57.272Z,2.70
2023-05-06T17:14:00.682Z,2.97
2023-05-06T17:17:05.440Z,2.92
2023-05-06T17:20:09.717Z,2.92
2023-05-06T17:23:13.265Z,2.67
2023-05-06T17:26:17.821Z,2.80
2023-05-06T17:29:22.238Z,2.92
2023-05-06T17:32:26.155Z,3.00
2023-05-06T17:35:29.504Z,2.60
2023-05-06T17:38:33.252Z,3.28
2023-05-06T17:41:37.074Z,3.43
2023-05-06T17:44:42.830Z,2.88
2023-05-06T17:47:46.156Z,2.95
2023-05-06T17:50:49.490Z,3.15
2023-05-06T17:53:52.816Z,3.17
2023-05-06T17:57:00.880Z,3.47
2023-05-06T18:00:04.527Z,2.97
2023-05-06T18:03:15.143Z,3.15
2023-05-06T18:06:18.699Z,3.42
2023-05-06T18:09:22.215Z,3.35
2023-05-06T18:12:25.627Z,3.40
2023-05-06T18:15:29.114Z,3.15
2023-05-06T18:18:32.419Z,3.47
2023-05-06T18:21:36.052Z,3.08
2023-05-06T18:24:39.472Z,3.03
2023-05-06T18:27:43.526Z,3.10
2023-05-06T18:30:46.740Z,3.10
2023-05-06T18:33:50.013Z,2.78
2023-05-06T18:36:53.205Z,2.80
2023-05-06T18:39:56.997Z,2.90
2023-05-06T18:43:00.237Z,3.40
2023-05-06T18:46:05.462Z,3.50
2023-05-06T18:49:08.830Z,2.92
2023-05-06T18:52:15.005Z,3.03
2023-05-06T18:55:21.155Z,2.28
2023-05-06T18:58:24.392Z,3.40
2023-05-06T19:01:27.770Z,2.92
2023-05-06T19:04:32.548Z,3.25
2023-05-06T19:07:35.925Z,2.95
2023-05-06T19:10:39.712Z,3.35
2023-05-06T19:13:46.427Z,3.50
2023-05-06T19:16:49.882Z,2.83
2023-05-06T19:19:53.299Z,2.03
2023-05-06T19:22:56.518Z,2.97
2023-05-06T19:26:00.142Z,3.20
2023-05-06T19:29:03.491Z,3.60
2023-05-06T19:32:06.798Z,3.70
2023-05-06T19:35:11.158Z,3.05
2023-05-06T19:38:14.725Z,3.78
2023-05-06T19:41:18.163Z,3.30
2023-05-06T19:44:21.559Z,2.90
2023-05-06T19:47:24.885Z,3.30
2023-05-06T19:50:28.822Z,3.20
2023-05-06T19:53:32.659Z,3.00
2023-05-06T19:56:36.015Z,3.70
2023-05-06T19:59:39.226Z,3.47
2023-05-06T20:02:43.229Z,3.88
2023-05-06T20:05:46.616Z,3.67
2023-05-06T20:08:49.770Z,3.80
2023-05-06T20:11:54.364Z,3.20
2023-05-06T20:14:57.651Z,3.27
2023-05-06T20:18:03.345Z,3.20
2023-05-06T20:21:06.605Z,2.58
2023-05-06T20:24:13.788Z,3.40
2023-05-06T20:27:17.159Z,3.22
2023-05-06T20:30:20.872Z,2.30
2023-05-06T20:33:24.190Z,2.88
2023-05-06T20:36:28.124Z,3.20
2023-05-06T20:39:32.337Z,2.35
2023-05-06T20:42:37.136Z,2.08
2023-05-06T20:45:40.539Z,2.10
2023-05-06T20:48:43.926Z,2.38
2023-05-06T20:51:47.235Z,2.38
2023-05-06T20:54:50.989Z,2.25
2023-05-06T20:57:54.235Z,3.50
2023-05-06T21:00:58.479Z,3.00
2023-05-06T21:04:03.334Z,3.20
2023-05-06T21:07:06.597Z,2.95
2023-05-06T21:10:11.087Z,2.88
2023-05-06T21:13:14.378Z,2.70
2023-05-06T21:16:17.632Z,3.30
2023-05-06T21:19:21.101Z,3.28
2023-05-06T21:22:25.070Z,3.58
2023-05-06T21:25:28.339Z,3.38
2023-05-06T21:28:31.748Z,3.20
2023-05-06T21:31:35.159Z,3.47
2023-05-06T21:34:38.935Z,3.08
2023-05-06T21:37:45.339Z,3.38
2023-05-06T21:40:49.078Z,2.80
2023-05-06T21:43:52.147Z,2.10
2023-05-06T21:46:57.959Z,2.60
2023-05-06T21:50:01.427Z,2.00
2023-05-06T21:53:06.524Z,2.20
2023-05-06T21:56:09.731Z,1.70
2023-05-06T21:59:16.121Z,1.90
2023-05-06T22:02:20.845Z,1.90
2023-05-06T22:05:24.102Z,2.20
2023-05-06T22:08:27.333Z,2.63
2023-05-06T22:11:30.879Z,3.33
2023-05-06T22:14:40.881Z,2.60
2023-05-06T22:17:44.970Z,2.83
2023-05-06T22:20:49.345Z,2.80
2023-05-06T22:23:52.569Z,2.40
2023-05-06T22:26:57.228Z,2.35
2023-05-06T22:30:00.615Z,3.50
2023-05-06T22:33:04.129Z,2.70
2023-05-06T22:36:10.847Z,2.60
2023-05-06T22:39:14.073Z,2.13
2023-05-06T22:42:17.739Z,2.80
2023-05-06T22:45:21.214Z,2.75
2023-05-06T22:48:24.770Z,2.57
2023-05-06T22:51:28.485Z,2.35
2023-05-06T22:54:31.771Z,2.67
2023-05-06T22:57:35.109Z,2.33
2023-05-06T23:00:38.647Z,2.50
2023-05-06T23:03:41.997Z,2.40
2023-05-06T23:06:46.196Z,2.72
2023-05-06T23:09:49.377Z,2.53
2023-05-06T23:12:52.642Z,2.63
2023-05-06T23:15:56.003Z,2.88
2023-05-06T23:19:02.204Z,2.77
2023-05-06T23:22:05.745Z,2.33
2023-05-06T23:25:11.661Z,3.45
2023-05-06T23:28:15.298Z,1.60
2023-05-06T23:31:18.674Z,2.22
2023-05-06T23:34:21.936Z,2.43
2023-05-06T23:37:25.284Z,2.45
2023-05-06T23:40:28.526Z,2.22
2023-05-06T23:43:31.884Z,2.00
2023-05-06T23:46:38.969Z,2.45
2023-05-06T23:49:42.433Z,2.80
2023-05-06T23:52:47.921Z,2.20
2023-05-06T23:55:51.691Z,2.05
2023-05-06T23:58:55.439Z,1.90
